createdAt,value
2023-01-08T00:01:52.386Z,6.36
2023-01-08T00:04:19.112Z,6.39
2023-01-08T00:06:46.122Z,6.39
2023-01-08T00:09:13.064Z,6.39
2023-01-08T00:11:40.063Z,6.47
2023-01-08T00:14:07.022Z,6.47
2023-01-08T00:16:33.890Z,6.46
2023-01-08T00:19:00.693Z,6.47
2023-01-08T00:21:28.076Z,6.45
2023-01-08T00:23:55.128Z,6.33
2023-01-08T00:26:22.326Z,6.38
2023-01-08T00:28:51.497Z,6.34
2023-01-08T00:31:18.338Z,6.30
2023-01-08T00:33:45.232Z,6.25
2023-01-08T00:36:15.755Z,6.28
2023-01-08T00:38:43.424Z,6.36
2023-01-08T00:41:10.517Z,6.36
2023-01-08T00:43:37.448Z,6.29
2023-01-08T00:46:04.736Z,6.25
2023-01-08T00:48:31.734Z,6.27
2023-01-08T00:51:01.288Z,6.25
2023-01-08T00:53:28.347Z,6.25
2023-01-08T00:56:07.154Z,6.27
2023-01-08T00:58:34.094Z,6.35
2023-01-08T01:01:01.297Z,6.41
2023-01-08T01:03:28.261Z,6.36
2023-01-08T01:06:02.543Z,6.38
2023-01-08T01:08:29.545Z,6.39
2023-01-08T01:10:57.119Z,6.41
2023-01-08T01:13:24.092Z,6.37
2023-01-08T01:15:58.862Z,6.36
2023-01-08T01:18:26.005Z,6.35
2023-01-08T01:20:52.919Z,6.31
2023-01-08T01:23:19.818Z,6.28
2023-01-08T01:25:46.523Z,6.24
2023-01-08T01:28:13.323Z,6.28
2023-01-08T01:30:40.149Z,6.29
2023-01-08T01:33:07.002Z,6.34
2023-01-08T01:35:33.829Z,6.31
2023-01-08T01:38:00.673Z,6.30
2023-01-08T01:40:27.421Z,6.32
2023-01-08T01:42:54.211Z,6.39
2023-01-08T01:45:24.176Z,6.42
2023-01-08T01:48:03.241Z,6.47
2023-01-08T01:50:32.359Z,6.53
2023-01-08T01:53:04.886Z,6.52
2023-01-08T01:55:32.794Z,6.52
2023-01-08T01:58:08.094Z,6.59
2023-01-08T02:00:35.504Z,6.57
2023-01-08T02:03:02.593Z,6.63
2023-01-08T02:05:51.225Z,6.70
2023-01-08T02:08:45.091Z,6.66
2023-01-08T02:11:18.944Z,6.60
2023-01-08T02:13:54.437Z,6.52
2023-01-08T02:16:38.698Z,6.47
2023-01-08T02:19:31.139Z,6.46
2023-01-08T02:22:15.136Z,6.52
2023-01-08T02:25:07.018Z,6.55
2023-01-08T02:27:35.383Z,6.54
2023-01-08T02:30:03.853Z,6.56
2023-01-08T02:32:37.870Z,6.57
2023-01-08T02:35:06.656Z,6.60
2023-01-08T02:37:33.605Z,6.68
2023-01-08T02:40:00.443Z,6.70
2023-01-08T02:42:35.607Z,6.74
2023-01-08T02:45:14.517Z,6.75
2023-01-08T02:47:46.917Z,6.75
2023-01-08T02:51:00.630Z,6.77
2023-01-08T02:53:29.567Z,6.72
2023-01-08T02:55:59.359Z,6.78
2023-01-08T02:58:27.750Z,6.79
2023-01-08T03:00:54.946Z,6.71
2023-01-08T03:03:27.272Z,6.60
2023-01-08T03:06:01.983Z,6.52
2023-01-08T03:08:28.933Z,6.50
2023-01-08T03:11:08.353Z,6.43
2023-01-08T03:14:07.453Z,6.47
2023-01-08T03:16:41.232Z,6.42
2023-01-08T03:19:23.893Z,6.41
2023-01-08T03:21:52.023Z,6.42
2023-01-08T03:24:26.307Z,6.38
2023-01-08T03:26:56.616Z,6.48
2023-01-08T03:29:27.233Z,6.56
2023-01-08T03:31:58.501Z,6.52
2023-01-08T03:34:25.960Z,6.53
2023-01-08T03:36:55.277Z,6.50
2023-01-08T03:39:46.946Z,6.41
2023-01-08T03:42:15.319Z,6.33
2023-01-08T03:44:42.289Z,6.35
2023-01-08T03:47:10.356Z,6.30
2023-01-08T03:49:38.245Z,6.25
2023-01-08T03:52:05.071Z,6.29
2023-01-08T03:54:33.802Z,6.32
2023-01-08T03:57:00.719Z,6.27
2023-01-08T03:59:27.489Z,6.28
2023-01-08T04:01:54.460Z,6.26
2023-01-08T04:04:21.308Z,6.23
2023-01-08T04:06:48.169Z,6.28
2023-01-08T04:09:14.931Z,6.24
2023-01-08T04:11:41.813Z,6.26
2023-01-08T04:14:08.727Z,6.31
2023-01-08T04:16:35.632Z,6.32
2023-01-08T04:19:02.389Z,6.31
2023-01-08T04:21:29.196Z,6.37
2023-01-08T04:23:55.959Z,6.39
2023-01-08T04:26:23.042Z,6.39
2023-01-08T04:28:49.839Z,6.39
2023-01-08T04:31:16.843Z,6.34
2023-01-08T04:33:43.622Z,6.36
2023-01-08T04:36:10.519Z,6.38
2023-01-08T04:38:37.331Z,6.39
2023-01-08T04:41:04.349Z,6.35
2023-01-08T04:43:31.401Z,6.30
2023-01-08T04:45:59.656Z,6.31
2023-01-08T04:48:27.186Z,6.28
2023-01-08T04:50:54.153Z,6.36
2023-01-08T04:53:20.976Z,6.38
2023-01-08T04:55:47.821Z,6.42
2023-01-08T04:58:14.810Z,6.37
2023-01-08T05:00:41.717Z,6.40
2023-01-08T05:03:08.513Z,6.37
2023-01-08T05:05:35.656Z,6.31
2023-01-08T05:08:02.454Z,6.27
2023-01-08T05:10:29.299Z,6.18
2023-01-08T05:13:02.418Z,6.16
2023-01-08T05:15:29.445Z,6.12
2023-01-08T05:18:00.876Z,6.13
2023-01-08T05:20:28.429Z,6.14
2023-01-08T05:22:55.390Z,6.16
2023-01-08T05:25:22.423Z,6.09
2023-01-08T05:27:49.191Z,6.06
2023-01-08T05:30:16.494Z,5.99
2023-01-08T05:32:43.281Z,5.93
2023-01-08T05:35:10.376Z,5.92
2023-01-08T05:37:37.758Z,5.82
2023-01-08T05:40:05.454Z,5.82
2023-01-08T05:42:34.831Z,5.73
2023-01-08T05:45:03.195Z,5.67
2023-01-08T05:47:31.419Z,5.66
2023-01-08T05:49:58.396Z,5.70
2023-01-08T05:52:25.441Z,5.63
2023-01-08T05:54:52.306Z,5.61
2023-01-08T05:57:19.168Z,5.56
2023-01-08T05:59:46.008Z,5.49
2023-01-08T06:02:12.918Z,5.50
2023-01-08T06:04:39.947Z,5.45
2023-01-08T06:07:06.747Z,5.45
2023-01-08T06:09:33.658Z,5.40
2023-01-08T06:12:00.432Z,5.36
2023-01-08T06:14:27.128Z,5.36
2023-01-08T06:16:54.032Z,5.28
2023-01-08T06:19:20.956Z,5.23
2023-01-08T06:21:47.799Z,5.21
2023-01-08T06:24:14.620Z,5.25
2023-01-08T06:26:41.413Z,5.24
2023-01-08T06:29:08.498Z,5.23
2023-01-08T06:31:36.139Z,5.23
2023-01-08T06:34:03.237Z,5.20
2023-01-08T06:36:29.958Z,5.17
2023-01-08T06:38:56.909Z,5.16
2023-01-08T06:41:23.674Z,5.16
2023-01-08T06:43:50.505Z,5.18
2023-01-08T06:46:17.365Z,5.17
2023-01-08T06:48:44.277Z,5.16
2023-01-08T06:51:11.133Z,5.13
2023-01-08T06:53:37.966Z,5.15
2023-01-08T06:56:05.073Z,5.06
2023-01-08T06:58:31.881Z,5.10
2023-01-08T07:00:59.495Z,5.10
2023-01-08T07:03:26.721Z,5.10
2023-01-08T07:05:53.632Z,5.02
2023-01-08T07:08:20.445Z,5.03
2023-01-08T07:10:47.430Z,4.99
2023-01-08T07:13:14.497Z,4.96
2023-01-08T07:15:41.969Z,4.91
2023-01-08T07:18:10.208Z,4.90
2023-01-08T07:20:37.432Z,4.87
2023-01-08T07:23:05.513Z,4.81
2023-01-08T07:25:32.696Z,4.78
2023-01-08T07:28:00.197Z,4.75
2023-01-08T07:30:30.263Z,4.76
2023-01-08T07:33:03.910Z,4.73
2023-01-08T07:35:30.808Z,4.74
2023-01-08T07:37:57.561Z,4.72
2023-01-08T07:40:25.225Z,4.70
2023-01-08T07:43:03.666Z,4.72
2023-01-08T07:45:31.311Z,4.67
2023-01-08T07:47:58.939Z,4.69
2023-01-08T07:50:26.570Z,4.61
2023-01-08T07:52:53.404Z,4.62
2023-01-08T07:55:20.265Z,4.57
2023-01-08T07:57:46.999Z,4.56
2023-01-08T08:00:15.048Z,4.53
2023-01-08T08:02:41.945Z,4.55
2023-01-08T08:05:09.189Z,4.50
2023-01-08T08:07:36.441Z,4.45
2023-01-08T08:10:05.049Z,4.40
2023-01-08T08:12:32.070Z,4.43
2023-01-08T08:14:59.080Z,4.41
2023-01-08T08:17:27.057Z,4.39
2023-01-08T08:19:53.941Z,4.38
2023-01-08T08:22:20.861Z,4.38
2023-01-08T08:24:47.672Z,4.39
2023-01-08T08:27:14.438Z,4.41
2023-01-08T08:29:41.354Z,4.44
2023-01-08T08:32:10.973Z,4.45
2023-01-08T08:34:37.777Z,4.47
2023-01-08T08:37:04.758Z,4.45
2023-01-08T08:39:31.609Z,4.48
2023-01-08T08:41:58.433Z,4.52
2023-01-08T08:44:25.284Z,4.56
2023-01-08T08:46:52.069Z,4.58
2023-01-08T08:49:18.976Z,4.65
2023-01-08T08:51:45.823Z,4.65
2023-01-08T08:54:12.885Z,4.70
2023-01-08T08:56:39.737Z,4.75
2023-01-08T08:59:06.659Z,4.81
2023-01-08T09:01:33.495Z,4.84
2023-01-08T09:04:00.417Z,4.88
2023-01-08T09:06:27.910Z,4.91
2023-01-08T09:08:55.245Z,4.97
2023-01-08T09:11:22.140Z,5.01
2023-01-08T09:13:48.986Z,4.96
2023-01-08T09:16:15.897Z,4.99
2023-01-08T09:18:42.855Z,4.96
2023-01-08T09:21:09.794Z,4.95
2023-01-08T09:23:36.727Z,5.04
2023-01-08T09:26:04.815Z,5.00
2023-01-08T09:28:31.937Z,4.96
2023-01-08T09:31:02.890Z,4.98
2023-01-08T09:33:29.785Z,5.01
2023-01-08T09:35:56.702Z,5.01
2023-01-08T09:38:23.862Z,5.05
2023-01-08T09:40:50.587Z,4.99
2023-01-08T09:43:20.331Z,4.98
2023-01-08T09:45:51.366Z,5.02
2023-01-08T09:48:19.379Z,5.01
2023-01-08T09:50:47.963Z,5.04
2023-01-08T09:53:16.661Z,5.10
2023-01-08T09:55:44.272Z,5.10
2023-01-08T09:58:36.021Z,5.20
2023-01-08T10:01:04.093Z,5.20
2023-01-08T10:03:40.643Z,5.26
2023-01-08T10:06:13.100Z,5.29
2023-01-08T10:08:40.389Z,5.34
2023-01-08T10:11:08.543Z,5.34
2023-01-08T10:13:38.554Z,5.38
2023-01-08T10:16:10.563Z,5.40
2023-01-08T10:18:38.236Z,5.44
2023-01-08T10:21:05.222Z,5.47
2023-01-08T10:23:32.100Z,5.54
2023-01-08T10:26:01.730Z,5.60
2023-01-08T10:28:30.632Z,5.64
2023-01-08T10:31:06.943Z,5.78
2023-01-08T10:33:49.698Z,5.94
2023-01-08T10:36:23.849Z,6.07
2023-01-08T10:38:59.633Z,6.17
2023-01-08T10:41:26.847Z,6.23
2023-01-08T10:43:57.310Z,6.30
2023-01-08T10:46:32.376Z,6.38
2023-01-08T10:49:00.897Z,6.37
2023-01-08T10:51:30.060Z,6.43
2023-01-08T10:54:01.190Z,6.53
2023-01-08T10:56:29.953Z,6.65
2023-01-08T10:58:57.105Z,6.60
2023-01-08T11:01:26.338Z,6.64
2023-01-08T11:03:56.274Z,6.67
2023-01-08T11:06:26.236Z,6.62
2023-01-08T11:08:58.682Z,6.67
2023-01-08T11:11:32.934Z,6.68
2023-01-08T11:14:15.571Z,6.65
2023-01-08T11:16:42.925Z,6.75
2023-01-08T11:19:36.294Z,6.83
2023-01-08T11:22:06.009Z,6.91
2023-01-08T11:24:33.377Z,6.95
2023-01-08T11:27:05.519Z,6.91
2023-01-08T11:29:55.663Z,6.89
2023-01-08T11:32:55.015Z,6.91
2023-01-08T11:35:38.864Z,6.94
2023-01-08T11:38:06.779Z,6.95
2023-01-08T11:41:04.113Z,6.97
2023-01-08T11:43:56.084Z,6.97
2023-01-08T11:46:42.326Z,6.90
2023-01-08T11:49:21.522Z,6.85
2023-01-08T11:52:12.891Z,6.81
2023-01-08T11:55:13.169Z,6.81
2023-01-08T11:57:52.317Z,6.81
2023-01-08T12:00:43.758Z,6.74
2023-01-08T12:03:26.442Z,6.80
2023-01-08T12:05:58.397Z,6.78
2023-01-08T12:08:53.991Z,6.76
2023-01-08T12:11:29.813Z,6.73
2023-01-08T12:14:17.608Z,6.73
2023-01-08T12:16:53.296Z,6.77
2023-01-08T12:20:01.476Z,6.58
2023-01-08T12:22:57.132Z,6.56
2023-01-08T12:25:49.976Z,6.54
2023-01-08T12:28:25.498Z,6.50
2023-01-08T12:31:09.613Z,6.52
2023-01-08T12:33:42.310Z,6.48
2023-01-08T12:36:11.403Z,6.44
2023-01-08T12:38:43.316Z,6.47
2023-01-08T12:41:12.369Z,6.42
2023-01-08T12:44:04.255Z,6.30
2023-01-08T12:46:35.844Z,6.38
2023-01-08T12:49:05.342Z,6.55
2023-01-08T12:51:32.045Z,6.53
2023-01-08T12:54:17.155Z,6.88
2023-01-08T12:56:49.873Z,7.07
2023-01-08T12:59:19.677Z,7.58
2023-01-08T13:01:54.723Z,7.85
2023-01-08T13:04:21.658Z,7.90
2023-01-08T13:07:05.250Z,8.29
2023-01-08T13:09:32.873Z,8.21
2023-01-08T13:12:00.491Z,8.35
2023-01-08T13:14:27.800Z,7.98
2023-01-08T13:17:22.273Z,7.82
2023-01-08T13:19:56.458Z,7.91
2023-01-08T13:22:29.316Z,8.04
2023-01-08T13:25:27.307Z,8.10
2023-01-08T13:27:54.814Z,7.86
2023-01-08T13:30:38.828Z,7.90
2023-01-08T13:33:27.140Z,7.67
2023-01-08T13:36:12.532Z,7.59
2023-01-08T13:38:40.586Z,7.52
2023-01-08T13:41:28.388Z,7.34
2023-01-08T13:44:06.815Z,7.36
2023-01-08T13:46:37.389Z,7.18
2023-01-08T13:49:15.369Z,7.14
2023-01-08T13:51:44.143Z,7.13
2023-01-08T13:54:14.027Z,6.92
2023-01-08T13:56:41.970Z,6.82
2023-01-08T13:59:39.859Z,6.56
2023-01-08T14:02:30.179Z,6.58
2023-01-08T14:04:59.344Z,6.59
2023-01-08T14:07:26.389Z,6.55
2023-01-08T14:09:53.872Z,6.48
2023-01-08T14:12:22.499Z,6.43
2023-01-08T14:14:55.001Z,6.50
2023-01-08T14:17:26.165Z,6.53
2023-01-08T14:19:53.076Z,6.44
2023-01-08T14:22:24.280Z,6.36
2023-01-08T14:24:56.336Z,6.41
2023-01-08T14:27:25.972Z,6.45
2023-01-08T14:29:52.863Z,6.35
2023-01-08T14:32:43.548Z,6.37
2023-01-08T14:35:15.576Z,6.41
2023-01-08T14:37:42.489Z,6.37
2023-01-08T14:40:16.783Z,6.26
2023-01-08T14:42:53.239Z,6.24
2023-01-08T14:45:28.700Z,6.22
2023-01-08T14:48:01.840Z,6.19
2023-01-08T14:50:37.415Z,6.20
2023-01-08T14:53:06.878Z,6.12
2023-01-08T14:55:36.395Z,6.08
2023-01-08T14:58:03.236Z,6.13
2023-01-08T15:00:31.570Z,6.02
2023-01-08T15:02:58.581Z,6.01
2023-01-08T15:05:30.406Z,6.03
2023-01-08T15:08:02.223Z,5.95
2023-01-08T15:10:35.297Z,5.93
2023-01-08T15:13:04.039Z,5.98
2023-01-08T15:15:32.275Z,5.98
2023-01-08T15:17:59.376Z,5.91
2023-01-08T15:20:31.310Z,5.85
2023-01-08T15:22:59.458Z,5.83
2023-01-08T15:25:30.882Z,5.77
2023-01-08T15:28:02.831Z,5.78
2023-01-08T15:30:37.523Z,5.65
2023-01-08T15:33:20.560Z,5.63
2023-01-08T15:35:48.412Z,5.62
2023-01-08T15:38:15.620Z,5.56
2023-01-08T15:40:42.989Z,5.55
2023-01-08T15:43:12.702Z,5.46
2023-01-08T15:45:44.345Z,5.43
2023-01-08T15:48:11.742Z,5.35
2023-01-08T15:50:40.876Z,5.38
2023-01-08T15:53:13.514Z,5.35
2023-01-08T15:55:43.593Z,5.27
2023-01-08T15:58:12.359Z,5.27
2023-01-08T16:00:40.665Z,5.25
2023-01-08T16:03:08.137Z,5.21
2023-01-08T16:05:36.421Z,5.17
2023-01-08T16:08:04.281Z,5.23
2023-01-08T16:10:31.746Z,5.16
2023-01-08T16:13:00.258Z,5.19
2023-01-08T16:15:28.772Z,5.19
2023-01-08T16:17:55.672Z,5.12
2023-01-08T16:20:22.573Z,5.08
2023-01-08T16:22:50.333Z,5.14
2023-01-08T16:25:17.299Z,5.22
2023-01-08T16:27:44.065Z,5.22
2023-01-08T16:30:14.748Z,5.18
2023-01-08T16:32:42.165Z,5.15
2023-01-08T16:35:10.810Z,5.21
2023-01-08T16:37:38.237Z,5.11
2023-01-08T16:40:05.696Z,5.09
2023-01-08T16:42:32.560Z,4.91
2023-01-08T16:44:59.377Z,4.98
2023-01-08T16:47:26.203Z,5.01
2023-01-08T16:49:52.994Z,4.85
2023-01-08T16:52:19.779Z,4.85
2023-01-08T16:54:47.494Z,4.77
2023-01-08T16:57:14.526Z,4.84
2023-01-08T16:59:41.548Z,4.84
2023-01-08T17:02:09.875Z,4.70
2023-01-08T17:04:36.771Z,4.62
2023-01-08T17:07:04.371Z,4.66
2023-01-08T17:09:31.600Z,4.71
2023-01-08T17:11:58.463Z,4.72
2023-01-08T17:14:25.314Z,4.71
2023-01-08T17:16:52.255Z,4.77
2023-01-08T17:19:19.057Z,4.86
2023-01-08T17:21:46.114Z,4.84
2023-01-08T17:24:13.023Z,4.80
2023-01-08T17:26:40.248Z,4.72
2023-01-08T17:29:07.343Z,4.60
2023-01-08T17:31:39.906Z,4.58
2023-01-08T17:34:14.123Z,4.60
2023-01-08T17:36:41.240Z,4.67
2023-01-08T17:39:08.218Z,4.62
2023-01-08T17:41:54.296Z,4.62
2023-01-08T17:44:21.741Z,4.63
2023-01-08T17:46:50.963Z,4.57
2023-01-08T17:49:19.423Z,4.56
2023-01-08T17:51:46.268Z,4.55
2023-01-08T17:54:15.298Z,4.52
2023-01-08T17:56:42.366Z,4.52
2023-01-08T17:59:13.011Z,4.49
2023-01-08T18:01:40.112Z,4.46
2023-01-08T18:04:06.977Z,4.46
2023-01-08T18:06:33.816Z,4.46
2023-01-08T18:09:00.650Z,4.49
2023-01-08T18:11:27.517Z,4.47
2023-01-08T18:13:59.090Z,4.41
2023-01-08T18:16:26.245Z,4.42
2023-01-08T18:18:53.407Z,4.36
2023-01-08T18:21:20.237Z,4.38
2023-01-08T18:23:50.453Z,4.32
2023-01-08T18:26:18.908Z,4.30
2023-01-08T18:28:45.785Z,4.33
2023-01-08T18:31:13.719Z,4.42
2023-01-08T18:33:41.358Z,4.36
2023-01-08T18:36:11.213Z,4.38
2023-01-08T18:38:39.973Z,4.32
2023-01-08T18:41:07.861Z,4.28
2023-01-08T18:43:35.723Z,4.22
2023-01-08T18:46:05.686Z,4.29
2023-01-08T18:48:35.142Z,4.25
2023-01-08T18:51:05.499Z,4.20
2023-01-08T18:53:33.196Z,4.14
2023-01-08T18:56:01.332Z,4.10
2023-01-08T18:58:29.193Z,4.08
2023-01-08T19:00:56.103Z,4.07
2023-01-08T19:03:23.106Z,4.03
2023-01-08T19:05:49.921Z,3.88
2023-01-08T19:08:16.813Z,3.96
2023-01-08T19:10:43.632Z,3.91
2023-01-08T19:13:10.490Z,3.91
2023-01-08T19:15:37.327Z,3.84
2023-01-08T19:18:05.610Z,3.86
2023-01-08T19:20:32.494Z,3.82
2023-01-08T19:22:59.493Z,3.79
2023-01-08T19:25:26.740Z,3.75
2023-01-08T19:27:53.671Z,3.76
2023-01-08T19:30:20.509Z,3.74
2023-01-08T19:32:48.940Z,3.58
2023-01-08T19:35:15.918Z,3.73
2023-01-08T19:37:43.300Z,3.65
2023-01-08T19:40:10.857Z,3.71
2023-01-08T19:42:56.138Z,3.78
2023-01-08T19:45:23.196Z,3.72
2023-01-08T19:47:50.037Z,3.74
2023-01-08T19:50:17.219Z,3.67
2023-01-08T19:52:44.126Z,3.65
2023-01-08T19:55:10.953Z,3.66
2023-01-08T19:57:37.788Z,3.72
2023-01-08T20:00:05.232Z,3.73
2023-01-08T20:02:38.546Z,3.68
2023-01-08T20:05:05.988Z,3.81
2023-01-08T20:07:32.876Z,3.92
2023-01-08T20:10:01.487Z,4.07
2023-01-08T20:12:28.372Z,4.15
2023-01-08T20:14:55.238Z,4.20
2023-01-08T20:17:25.390Z,4.24
2023-01-08T20:19:52.938Z,4.25
2023-01-08T20:22:19.901Z,4.28
2023-01-08T20:24:47.338Z,4.27
2023-01-08T20:27:14.261Z,4.13
2023-01-08T20:29:41.816Z,4.07
2023-01-08T20:32:08.656Z,4.04
2023-01-08T20:34:35.811Z,4.12
2023-01-08T20:37:06.167Z,4.04
2023-01-08T20:39:33.359Z,4.18
2023-01-08T20:42:04.648Z,4.15
2023-01-08T20:44:32.899Z,4.07
2023-01-08T20:47:00.916Z,4.06
2023-01-08T20:49:28.029Z,4.10
2023-01-08T20:51:59.135Z,4.10
2023-01-08T20:54:27.817Z,4.14
2023-01-08T20:56:56.409Z,4.11
2023-01-08T20:59:27.271Z,4.13
2023-01-08T21:01:54.533Z,4.27
2023-01-08T21:04:21.896Z,4.21
2023-01-08T21:06:49.165Z,4.32
2023-01-08T21:09:17.704Z,4.28
2023-01-08T21:11:44.917Z,4.30
2023-01-08T21:14:12.026Z,4.32
2023-01-08T21:16:40.822Z,4.31
2023-01-08T21:19:10.396Z,4.34
2023-01-08T21:21:40.150Z,4.34
2023-01-08T21:24:09.588Z,4.31
2023-01-08T21:26:37.211Z,4.43
2023-01-08T21:29:06.548Z,4.43
2023-01-08T21:31:34.432Z,4.36
2023-01-08T21:34:02.430Z,4.19
2023-01-08T21:36:31.616Z,4.11
2023-01-08T21:39:00.454Z,4.15
2023-01-08T21:41:47.183Z,4.22
2023-01-08T21:44:38.301Z,4.25
2023-01-08T21:47:06.004Z,4.18
2023-01-08T21:49:33.022Z,4.24
2023-01-08T21:52:18.481Z,4.25
2023-01-08T21:54:45.342Z,4.25
2023-01-08T21:57:12.290Z,4.33
2023-01-08T21:59:39.140Z,4.27
2023-01-08T22:02:06.759Z,4.40
2023-01-08T22:04:33.831Z,4.39
2023-01-08T22:07:00.604Z,4.39
2023-01-08T22:09:27.571Z,4.31
2023-01-08T22:11:55.785Z,4.28
2023-01-08T22:14:22.986Z,4.15
2023-01-08T22:16:49.811Z,4.11
2023-01-08T22:19:16.660Z,4.11
2023-01-08T22:21:43.454Z,4.09
2023-01-08T22:24:10.298Z,4.07
2023-01-08T22:26:37.212Z,4.04
2023-01-08T22:29:06.026Z,4.09
2023-01-08T22:31:33.015Z,4.10
2023-01-08T22:34:00.514Z,4.10
2023-01-08T22:36:27.638Z,4.01
2023-01-08T22:38:54.444Z,4.02
2023-01-08T22:41:23.611Z,3.98
2023-01-08T22:43:55.911Z,4.11
2023-01-08T22:46:23.497Z,4.12
2023-01-08T22:48:50.506Z,4.08
2023-01-08T22:51:17.893Z,4.06
2023-01-08T22:53:44.957Z,4.13
2023-01-08T22:56:12.546Z,4.13
2023-01-08T22:58:40.840Z,4.11
2023-01-08T23:01:25.409Z,4.11
2023-01-08T23:03:54.815Z,4.14
2023-01-08T23:06:22.974Z,4.20
2023-01-08T23:08:50.675Z,4.21
2023-01-08T23:11:19.746Z,4.20
2023-01-08T23:13:47.026Z,4.30
2023-01-08T23:16:16.503Z,4.31
2023-01-08T23:18:43.462Z,4.20
2023-01-08T23:21:12.817Z,4.30
2023-01-08T23:23:39.966Z,4.24
2023-01-08T23:26:09.053Z,4.13
2023-01-08T23:28:35.923Z,4.09
2023-01-08T23:31:07.522Z,4.20
2023-01-08T23:33:34.374Z,4.16
2023-01-08T23:36:01.227Z,4.16
2023-01-08T23:38:28.192Z,4.08
2023-01-08T23:40:55.539Z,3.98
2023-01-08T23:43:22.401Z,4.13
2023-01-08T23:45:49.333Z,3.96
2023-01-08T23:48:16.165Z,3.90
2023-01-08T23:50:43.055Z,3.95
2023-01-08T23:53:09.828Z,4.02
2023-01-08T23:55:36.585Z,3.90
2023-01-08T23:58:03.452Z,3.89
